Terminal Aerodrome Forecast
Issued by NWS

Home | Current Version | Previous Version | Text Only | Print | Product List | Glossary Off
Versions: 1 2 3 4 5 6 7 8 9 10 11 12 13 14 15 16 17 18 19 20 21 22 23

000
FTUS43 KBIS 261700
TAFJMS
TAF
KJMS 261720Z 2618/2718 28022G32KT P6SM SCT040
     FM270200 32015KT P6SM BKN040
     FM270800 32014KT P6SM BKN012
     FM271400 33014KT P6SM SCT012 BKN035=

USA.gov is the U.S. government's official web portal to all federal, state and local government web resources and services.